createdAt,value
2023-05-15T00:00:41.486Z,14.70
2023-05-15T00:01:41.480Z,14.70
2023-05-15T00:02:41.476Z,14.69
2023-05-15T00:03:41.520Z,14.68
2023-05-15T00:04:41.490Z,14.68
2023-05-15T00:05:41.417Z,14.68
2023-05-15T00:06:41.390Z,14.61
2023-05-15T00:07:41.345Z,14.61
2023-05-15T00:08:41.362Z,14.60
2023-05-15T00:09:41.358Z,14.58
2023-05-15T00:10:45.011Z,14.57
2023-05-15T00:11:42.305Z,14.57
2023-05-15T00:12:41.325Z,14.57
2023-05-15T00:13:41.313Z,14.58
2023-05-15T00:14:41.292Z,14.58
2023-05-15T00:15:41.310Z,14.54
2023-05-15T00:16:41.407Z,14.58
2023-05-15T00:17:41.266Z,14.57
2023-05-15T00:18:41.294Z,14.51
2023-05-15T00:19:41.245Z,14.51
2023-05-15T00:20:41.246Z,14.51
2023-05-15T00:21:41.251Z,14.51
2023-05-15T00:22:41.202Z,14.51
2023-05-15T00:23:41.258Z,14.46
2023-05-15T00:24:41.183Z,14.46
2023-05-15T00:25:41.307Z,14.50
2023-05-15T00:26:41.176Z,14.46
2023-05-15T00:27:41.190Z,14.46
2023-05-15T00:28:41.146Z,14.46
2023-05-15T00:29:41.144Z,14.46
2023-05-15T00:30:41.117Z,14.40
2023-05-15T00:31:41.203Z,14.37
2023-05-15T00:32:41.134Z,14.40
2023-05-15T00:33:41.092Z,14.37
2023-05-15T00:34:41.105Z,14.37
2023-05-15T00:35:41.049Z,14.36
2023-05-15T00:36:41.081Z,14.36
2023-05-15T00:37:41.073Z,14.35
2023-05-15T00:38:41.041Z,14.35
2023-05-15T00:39:41.036Z,14.36
2023-05-15T00:40:41.028Z,14.32
2023-05-15T00:41:41.034Z,14.35
2023-05-15T00:42:41.040Z,14.33
2023-05-15T00:43:40.983Z,14.32
2023-05-15T00:44:40.979Z,14.33
2023-05-15T00:45:40.993Z,14.29
2023-05-15T00:46:41.048Z,14.29
2023-05-15T00:47:40.974Z,14.32
2023-05-15T00:48:40.935Z,14.32
2023-05-15T00:49:40.945Z,14.28
2023-05-15T00:50:40.892Z,14.28
2023-05-15T00:51:40.908Z,14.27
2023-05-15T00:52:40.902Z,14.28
2023-05-15T00:53:40.934Z,14.21
2023-05-15T00:54:40.878Z,14.22
2023-05-15T00:55:40.874Z,14.22
2023-05-15T00:56:40.917Z,14.18
2023-05-15T00:57:40.853Z,14.17
2023-05-15T00:58:40.906Z,14.12
2023-05-15T00:59:40.856Z,14.10
2023-05-15T01:00:40.885Z,14.14
2023-05-15T01:01:40.822Z,14.12
2023-05-15T01:02:40.838Z,14.07
2023-05-15T01:03:41.758Z,14.09
2023-05-15T01:04:40.745Z,14.07
2023-05-15T01:05:40.782Z,14.09
2023-05-15T01:06:40.773Z,14.06
2023-05-15T01:07:40.803Z,14.04
2023-05-15T01:08:40.707Z,14.03
2023-05-15T01:09:40.707Z,14.03
2023-05-15T01:10:40.704Z,14.04
2023-05-15T01:11:40.718Z,14.04
2023-05-15T01:12:40.698Z,14.02
2023-05-15T01:13:40.676Z,14.02
2023-05-15T01:14:40.680Z,14.02
2023-05-15T01:15:40.651Z,14.02
2023-05-15T01:16:40.647Z,13.99
2023-05-15T01:17:40.683Z,14.00
2023-05-15T01:18:40.764Z,14.02
2023-05-15T01:19:40.756Z,13.95
2023-05-15T01:20:40.655Z,13.99
2023-05-15T01:21:40.572Z,13.97
2023-05-15T01:22:40.589Z,13.97
2023-05-15T01:23:40.566Z,13.97
2023-05-15T01:24:40.572Z,13.97
2023-05-15T01:25:40.514Z,13.96
2023-05-15T01:26:40.509Z,13.92
2023-05-15T01:27:40.522Z,13.92
2023-05-15T01:28:40.499Z,13.96
2023-05-15T01:29:40.512Z,13.97
2023-05-15T01:30:40.505Z,13.99
2023-05-15T01:31:40.475Z,13.97
2023-05-15T01:32:40.478Z,13.91
2023-05-15T01:33:40.502Z,13.91
2023-05-15T01:34:40.450Z,13.88
2023-05-15T01:35:40.441Z,13.89
2023-05-15T01:36:40.440Z,13.88
2023-05-15T01:37:40.433Z,13.87
2023-05-15T01:38:40.411Z,13.87
2023-05-15T01:39:40.382Z,13.87
2023-05-15T01:40:40.382Z,13.87
2023-05-15T01:41:40.396Z,13.89
2023-05-15T01:42:40.381Z,13.89
2023-05-15T01:43:40.347Z,13.88
2023-05-15T01:44:40.351Z,13.88
2023-05-15T01:45:40.306Z,13.89
2023-05-15T01:46:40.406Z,13.87
2023-05-15T01:47:40.369Z,13.84
2023-05-15T01:48:40.340Z,13.89
2023-05-15T01:49:40.333Z,13.88
2023-05-15T01:50:40.277Z,13.85
2023-05-15T01:51:40.260Z,13.88
2023-05-15T01:52:40.385Z,13.82
2023-05-15T01:53:40.258Z,13.81
2023-05-15T01:54:40.243Z,13.82
2023-05-15T01:55:40.202Z,13.84
2023-05-15T01:56:40.198Z,13.78
2023-05-15T01:57:40.208Z,13.79
2023-05-15T01:58:40.210Z,13.84
2023-05-15T01:59:40.188Z,13.78
2023-05-15T02:00:40.209Z,13.78
2023-05-15T02:01:40.187Z,13.81
2023-05-15T02:02:40.211Z,13.79
2023-05-15T02:03:40.293Z,13.75
2023-05-15T02:04:40.118Z,13.71
2023-05-15T02:05:40.132Z,13.73
2023-05-15T02:06:40.121Z,13.70
2023-05-15T02:07:40.116Z,13.71
2023-05-15T02:08:40.066Z,13.71
2023-05-15T02:09:40.104Z,13.73
2023-05-15T02:10:40.046Z,13.71
2023-05-15T02:11:40.058Z,13.75
2023-05-15T02:12:40.059Z,13.71
2023-05-15T02:13:40.008Z,13.66
2023-05-15T02:14:39.991Z,13.62
2023-05-15T02:15:40.017Z,13.59
2023-05-15T02:16:40.102Z,13.59
2023-05-15T02:17:40.033Z,13.55
2023-05-15T02:18:40.016Z,13.54
2023-05-15T02:19:39.967Z,13.52
2023-05-15T02:20:39.945Z,13.54
2023-05-15T02:21:39.925Z,13.52
2023-05-15T02:22:39.964Z,13.51
2023-05-15T02:23:39.934Z,13.52
2023-05-15T02:24:39.926Z,13.51
2023-05-15T02:25:39.869Z,13.51
2023-05-15T02:26:39.893Z,13.57
2023-05-15T02:27:39.865Z,13.54
2023-05-15T02:28:39.859Z,13.55
2023-05-15T02:29:39.811Z,13.51
2023-05-15T02:30:39.809Z,13.51
2023-05-15T02:31:39.875Z,13.49
2023-05-15T02:32:39.837Z,13.48
2023-05-15T02:33:39.776Z,13.49
2023-05-15T02:34:39.746Z,13.49
2023-05-15T02:35:39.788Z,13.45
2023-05-15T02:36:39.754Z,13.44
2023-05-15T02:37:39.781Z,13.42
2023-05-15T02:38:39.737Z,13.49
2023-05-15T02:39:39.696Z,13.44
2023-05-15T02:40:39.690Z,13.45
2023-05-15T02:41:39.677Z,13.44
2023-05-15T02:42:39.639Z,13.42
2023-05-15T02:43:39.748Z,13.42
2023-05-15T02:44:39.660Z,13.38
2023-05-15T02:45:39.652Z,13.32
2023-05-15T02:46:39.607Z,13.28
2023-05-15T02:47:39.703Z,13.26
2023-05-15T02:48:39.582Z,13.22
2023-05-15T02:49:39.585Z,13.22
2023-05-15T02:50:39.553Z,13.19
2023-05-15T02:51:39.597Z,13.17
2023-05-15T02:52:39.551Z,13.12
2023-05-15T02:53:39.545Z,13.12
2023-05-15T02:54:39.517Z,13.14
2023-05-15T02:55:39.525Z,13.14
2023-05-15T02:56:39.571Z,13.11
2023-05-15T02:57:39.540Z,13.12
2023-05-15T02:58:39.498Z,13.12
2023-05-15T02:59:39.495Z,13.10
2023-05-15T03:00:39.465Z,13.10
2023-05-15T03:01:39.532Z,13.04
2023-05-15T03:02:39.529Z,13.04
2023-05-15T03:03:39.470Z,13.04
2023-05-15T03:04:39.485Z,13.03
2023-05-15T03:05:39.416Z,13.04
2023-05-15T03:06:39.432Z,13.04
2023-05-15T03:07:39.399Z,12.97
2023-05-15T03:08:39.421Z,13.00
2023-05-15T03:09:39.423Z,12.97
2023-05-15T03:10:39.347Z,12.97
2023-05-15T03:11:39.340Z,13.05
2023-05-15T03:12:39.317Z,13.03
2023-05-15T03:13:39.348Z,13.05
2023-05-15T03:14:39.361Z,13.08
2023-05-15T03:15:39.322Z,13.10
2023-05-15T03:16:39.362Z,13.11
2023-05-15T03:17:39.408Z,13.07
2023-05-15T03:18:39.324Z,13.10
2023-05-15T03:19:39.329Z,13.15
2023-05-15T03:20:39.275Z,13.11
2023-05-15T03:21:39.234Z,13.11
2023-05-15T03:22:39.302Z,13.11
2023-05-15T03:23:39.215Z,13.14
2023-05-15T03:24:39.233Z,13.14
2023-05-15T03:25:39.200Z,13.14
2023-05-15T03:26:39.197Z,13.12
2023-05-15T03:27:39.216Z,13.17
2023-05-15T03:28:40.557Z,13.17
2023-05-15T03:29:39.234Z,13.22
2023-05-15T03:30:39.155Z,13.20
2023-05-15T03:31:39.195Z,13.23
2023-05-15T03:32:39.169Z,13.22
2023-05-15T03:33:39.114Z,13.26
2023-05-15T03:34:40.979Z,13.23
2023-05-15T03:35:39.080Z,13.23
2023-05-15T03:36:39.083Z,13.25
2023-05-15T03:37:39.155Z,13.26
2023-05-15T03:38:39.070Z,13.25
2023-05-15T03:39:39.059Z,13.28
2023-05-15T03:40:39.021Z,13.30
2023-05-15T03:41:39.034Z,13.33
2023-05-15T03:42:39.055Z,13.36
2023-05-15T03:43:39.025Z,13.36
2023-05-15T03:44:39.040Z,13.39
2023-05-15T03:45:39.027Z,13.36
2023-05-15T03:46:39.041Z,13.42
2023-05-15T03:47:38.985Z,13.38
2023-05-15T03:48:38.994Z,13.42
2023-05-15T03:49:38.954Z,13.42
2023-05-15T03:50:38.951Z,13.41
2023-05-15T03:51:38.927Z,13.42
2023-05-15T03:52:40.059Z,13.39
2023-05-15T03:53:38.926Z,13.39
2023-05-15T03:54:38.870Z,13.38
2023-05-15T03:55:38.878Z,13.38
2023-05-15T03:56:38.915Z,13.38
2023-05-15T03:57:38.900Z,13.38
2023-05-15T03:58:38.871Z,13.36
2023-05-15T03:59:38.830Z,13.32
2023-05-15T04:00:39.806Z,13.36
2023-05-15T04:01:47.509Z,13.28
2023-05-15T04:02:39.865Z,13.32
2023-05-15T04:03:38.811Z,13.29
2023-05-15T04:04:38.879Z,13.30
2023-05-15T04:05:38.862Z,13.29
2023-05-15T04:06:38.748Z,13.36
2023-05-15T04:07:38.759Z,13.39
2023-05-15T04:08:39.708Z,13.38
2023-05-15T04:09:38.736Z,13.42
2023-05-15T04:10:38.759Z,13.46
2023-05-15T04:11:38.713Z,13.45
2023-05-15T04:12:38.698Z,13.52
2023-05-15T04:13:38.669Z,13.48
2023-05-15T04:14:38.778Z,13.51
2023-05-15T04:15:38.669Z,13.45
2023-05-15T04:16:38.705Z,13.28
2023-05-15T04:17:38.675Z,13.28
2023-05-15T04:18:38.718Z,13.26
2023-05-15T04:19:39.880Z,13.26
2023-05-15T04:20:38.651Z,13.15
2023-05-15T04:21:38.594Z,13.08
2023-05-15T04:22:38.636Z,13.03
2023-05-15T04:23:38.566Z,12.95
2023-05-15T04:24:38.582Z,12.97
2023-05-15T04:25:38.549Z,13.04
2023-05-15T04:26:38.584Z,13.07
2023-05-15T04:27:38.524Z,12.97
2023-05-15T04:28:38.626Z,12.92
2023-05-15T04:29:38.577Z,12.96
2023-05-15T04:30:38.560Z,12.97
2023-05-15T04:31:38.582Z,13.04
2023-05-15T04:32:38.526Z,12.96
2023-05-15T04:33:38.513Z,12.86
2023-05-15T04:34:38.502Z,12.85
2023-05-15T04:35:38.450Z,12.89
2023-05-15T04:36:40.582Z,12.90
2023-05-15T04:37:38.452Z,12.97
2023-05-15T04:38:38.432Z,13.08
2023-05-15T04:39:38.398Z,13.15
2023-05-15T04:40:38.442Z,13.23
2023-05-15T04:41:38.372Z,13.36
2023-05-15T04:42:39.483Z,13.46
2023-05-15T04:43:39.412Z,13.32
2023-05-15T04:44:38.359Z,13.32
2023-05-15T04:45:38.443Z,13.32
2023-05-15T04:46:38.356Z,13.44
2023-05-15T04:47:38.507Z,13.46
2023-05-15T04:48:38.305Z,13.52
2023-05-15T04:49:38.304Z,13.59
2023-05-15T04:50:38.332Z,13.64
2023-05-15T04:51:38.307Z,13.64
2023-05-15T04:52:38.266Z,13.64
2023-05-15T04:53:38.246Z,13.73
2023-05-15T04:54:38.366Z,13.75
2023-05-15T04:55:38.247Z,14.00
2023-05-15T04:56:38.264Z,14.57
2023-05-15T04:57:38.221Z,15.14
2023-05-15T04:58:38.219Z,15.72
2023-05-15T04:59:38.294Z,16.02
2023-05-15T05:00:38.173Z,16.30
2023-05-15T05:01:38.240Z,16.67
2023-05-15T05:02:38.236Z,16.91
2023-05-15T05:03:38.188Z,17.18
2023-05-15T05:04:38.140Z,17.49
2023-05-15T05:05:38.139Z,17.55
2023-05-15T05:06:38.158Z,17.36
2023-05-15T05:07:38.107Z,17.48
2023-05-15T05:08:38.085Z,17.71
2023-05-15T05:09:38.870Z,17.75
2023-05-15T05:10:38.103Z,17.89
2023-05-15T05:11:38.106Z,17.86
2023-05-15T05:12:38.067Z,18.39
2023-05-15T05:13:38.114Z,18.69
2023-05-15T05:14:38.082Z,19.00
2023-05-15T05:15:38.162Z,18.73
2023-05-15T05:16:38.024Z,18.15
2023-05-15T05:17:38.082Z,18.15
2023-05-15T05:18:38.062Z,18.20
2023-05-15T05:19:38.065Z,18.23
2023-05-15T05:20:38.079Z,17.93
2023-05-15T05:21:37.971Z,18.15
2023-05-15T05:22:38.076Z,18.00
2023-05-15T05:23:37.971Z,17.82
2023-05-15T05:24:37.998Z,18.08
2023-05-15T05:25:37.965Z,18.27
2023-05-15T05:26:37.899Z,18.42
2023-05-15T05:27:37.923Z,18.62
2023-05-15T05:28:38.048Z,18.82
2023-05-15T05:29:37.878Z,19.47
2023-05-15T05:30:37.868Z,20.06
2023-05-15T05:31:37.940Z,20.52
2023-05-15T05:32:37.989Z,20.43
2023-05-15T05:33:37.848Z,20.17
2023-05-15T05:34:37.832Z,19.84
2023-05-15T05:35:37.852Z,19.59
2023-05-15T05:36:37.861Z,19.18
2023-05-15T05:37:39.600Z,19.10
2023-05-15T05:38:37.826Z,19.63
2023-05-15T05:39:37.829Z,20.35
2023-05-15T05:40:37.741Z,21.06
2023-05-15T05:41:37.777Z,20.91
2023-05-15T05:42:37.812Z,20.47
2023-05-15T05:43:37.754Z,20.13
2023-05-15T05:44:37.769Z,20.06
2023-05-15T05:45:37.739Z,19.62
2023-05-15T05:46:37.816Z,19.29
2023-05-15T05:47:37.882Z,19.10
2023-05-15T05:48:37.748Z,19.00
2023-05-15T05:49:37.713Z,18.91
2023-05-15T05:50:37.684Z,18.92
2023-05-15T05:51:37.732Z,18.82
2023-05-15T05:52:37.685Z,18.76
2023-05-15T05:53:39.521Z,18.69
2023-05-15T05:54:37.649Z,18.39
2023-05-15T05:55:37.699Z,18.15
2023-05-15T05:56:37.644Z,18.00
2023-05-15T05:57:37.746Z,17.95
2023-05-15T05:58:37.582Z,17.95
2023-05-15T05:59:37.582Z,17.92
2023-05-15T06:00:37.699Z,17.92
2023-05-15T06:01:37.624Z,17.68
2023-05-15T06:02:37.784Z,17.58
2023-05-15T06:03:37.639Z,17.51
2023-05-15T06:04:37.780Z,17.48
2023-05-15T06:05:37.538Z,17.43
2023-05-15T06:06:37.540Z,17.38
2023-05-15T06:07:37.659Z,17.34
2023-05-15T06:08:37.479Z,17.23
2023-05-15T06:09:39.459Z,17.14
2023-05-15T06:10:37.496Z,17.16
2023-05-15T06:11:37.473Z,17.26
2023-05-15T06:12:37.440Z,17.30
2023-05-15T06:13:37.504Z,17.31
2023-05-15T06:14:37.388Z,17.38
2023-05-15T06:15:37.455Z,17.40
2023-05-15T06:16:37.457Z,17.46
2023-05-15T06:17:37.701Z,17.48
2023-05-15T06:18:37.415Z,17.49
2023-05-15T06:19:37.344Z,17.48
2023-05-15T06:20:37.339Z,17.41
2023-05-15T06:21:37.391Z,17.48
2023-05-15T06:22:37.329Z,17.33
2023-05-15T06:23:37.351Z,17.14
2023-05-15T06:24:37.329Z,16.93
2023-05-15T06:25:37.282Z,16.57
2023-05-15T06:26:37.294Z,16.42
2023-05-15T06:27:37.315Z,16.39
2023-05-15T06:28:37.268Z,16.52
2023-05-15T06:29:37.255Z,16.42
2023-05-15T06:30:37.262Z,16.52
2023-05-15T06:31:37.274Z,16.53
2023-05-15T06:32:37.293Z,16.57
2023-05-15T06:33:37.226Z,16.53
2023-05-15T06:34:37.288Z,16.45
2023-05-15T06:35:37.170Z,16.56
2023-05-15T06:36:37.204Z,16.71
2023-05-15T06:37:37.207Z,16.86
2023-05-15T06:38:37.157Z,16.91
2023-05-15T06:39:38.533Z,16.97
2023-05-15T06:40:37.209Z,17.04
2023-05-15T06:41:37.139Z,16.94
2023-05-15T06:42:37.109Z,16.89
2023-05-15T06:43:38.339Z,17.04
2023-05-15T06:44:37.088Z,17.14
2023-05-15T06:45:37.073Z,17.22
2023-05-15T06:46:37.129Z,17.33
2023-05-15T06:47:37.098Z,17.38
2023-05-15T06:48:37.057Z,17.40
2023-05-15T06:49:37.068Z,17.48
2023-05-15T06:50:37.042Z,17.59
2023-05-15T06:51:37.013Z,17.55
2023-05-15T06:52:37.017Z,17.55
2023-05-15T06:53:37.009Z,17.62
2023-05-15T06:54:36.981Z,17.70
2023-05-15T06:55:36.952Z,17.75
2023-05-15T06:56:37.006Z,17.72
2023-05-15T06:57:36.927Z,17.71
2023-05-15T06:58:36.926Z,17.70
2023-05-15T06:59:36.946Z,17.62
2023-05-15T07:00:36.905Z,17.70
2023-05-15T07:01:36.965Z,17.68
2023-05-15T07:02:36.922Z,17.62
2023-05-15T07:03:36.867Z,17.63
2023-05-15T07:04:36.911Z,17.74
2023-05-15T07:05:36.852Z,17.79
2023-05-15T07:06:36.912Z,17.79
2023-05-15T07:07:36.871Z,17.74
2023-05-15T07:08:36.854Z,17.82
2023-05-15T07:09:38.673Z,17.93
2023-05-15T07:10:36.801Z,17.92
2023-05-15T07:11:36.851Z,18.10
2023-05-15T07:12:36.797Z,18.14
2023-05-15T07:13:36.772Z,18.17
2023-05-15T07:14:36.762Z,18.08
2023-05-15T07:15:36.964Z,17.86
2023-05-15T07:16:36.754Z,17.84
2023-05-15T07:17:36.804Z,17.87
2023-05-15T07:18:36.777Z,17.84
2023-05-15T07:19:36.751Z,17.71
2023-05-15T07:20:37.049Z,17.58
2023-05-15T07:21:36.701Z,17.66
2023-05-15T07:22:44.520Z,17.64
2023-05-15T07:23:37.680Z,17.71
2023-05-15T07:24:37.756Z,17.71
2023-05-15T07:25:36.683Z,17.79
2023-05-15T07:26:46.656Z,17.86
2023-05-15T07:27:37.681Z,17.90
2023-05-15T07:28:36.640Z,17.97
2023-05-15T07:29:36.611Z,18.02
2023-05-15T07:30:36.633Z,18.03
2023-05-15T07:31:36.640Z,18.02
2023-05-15T07:32:36.622Z,18.07
2023-05-15T07:33:36.551Z,18.10
2023-05-15T07:34:36.527Z,18.11
2023-05-15T07:35:36.521Z,18.17
2023-05-15T07:36:36.580Z,18.07
2023-05-15T07:37:36.536Z,18.03
2023-05-15T07:38:36.503Z,18.10
2023-05-15T07:39:37.848Z,18.08
2023-05-15T07:40:36.505Z,18.05
2023-05-15T07:41:36.490Z,18.05
2023-05-15T07:42:36.498Z,18.05
2023-05-15T07:43:36.435Z,18.08
2023-05-15T07:44:36.435Z,18.08
2023-05-15T07:45:36.559Z,17.92
2023-05-15T07:46:36.447Z,17.64
2023-05-15T07:47:36.452Z,17.46
2023-05-15T07:48:36.401Z,17.43
2023-05-15T07:49:36.408Z,17.56
2023-05-15T07:50:36.417Z,17.71
2023-05-15T07:51:36.386Z,17.92
2023-05-15T07:52:36.357Z,18.07
2023-05-15T07:53:36.361Z,18.20
2023-05-15T07:54:36.362Z,18.26
2023-05-15T07:55:36.375Z,18.29
2023-05-15T07:56:36.303Z,18.35
2023-05-15T07:57:36.330Z,18.37
2023-05-15T07:58:36.316Z,18.41
2023-05-15T07:59:36.415Z,18.18
2023-05-15T08:00:36.272Z,18.26
2023-05-15T08:01:36.253Z,18.36
2023-05-15T08:02:36.273Z,18.50
2023-05-15T08:03:36.509Z,18.62
2023-05-15T08:04:36.480Z,18.78
2023-05-15T08:05:36.240Z,18.57
2023-05-15T08:06:36.391Z,18.32
2023-05-15T08:07:36.222Z,18.05
2023-05-15T08:08:36.217Z,17.81
2023-05-15T08:09:37.794Z,17.72
2023-05-15T08:10:36.222Z,17.74
2023-05-15T08:11:36.195Z,17.89
2023-05-15T08:12:36.252Z,18.00
2023-05-15T08:13:36.129Z,18.03
2023-05-15T08:14:36.309Z,18.17
2023-05-15T08:15:36.266Z,18.14
2023-05-15T08:16:36.177Z,18.21
2023-05-15T08:17:36.255Z,18.21
2023-05-15T08:18:36.138Z,18.12
2023-05-15T08:19:36.074Z,18.11
2023-05-15T08:20:36.068Z,18.14
2023-05-15T08:21:36.131Z,18.14
2023-05-15T08:22:36.149Z,18.17
2023-05-15T08:23:36.019Z,18.25
2023-05-15T08:24:36.270Z,18.32
2023-05-15T08:25:36.729Z,18.37
2023-05-15T08:26:36.222Z,18.48
2023-05-15T08:27:36.176Z,18.50
2023-05-15T08:28:35.999Z,18.47
2023-05-15T08:29:38.553Z,18.30
2023-05-15T08:30:36.009Z,18.11
2023-05-15T08:31:36.048Z,18.00
2023-05-15T08:32:36.255Z,17.99
2023-05-15T08:33:35.926Z,17.96
2023-05-15T08:34:35.911Z,17.82
2023-05-15T08:35:36.007Z,17.81
2023-05-15T08:36:37.714Z,17.79
2023-05-15T08:37:35.999Z,17.86
2023-05-15T08:38:35.868Z,17.93
2023-05-15T08:39:37.300Z,18.02
2023-05-15T08:40:39.437Z,18.07
2023-05-15T08:42:35.880Z,18.18
2023-05-15T08:43:35.990Z,18.26
2023-05-15T08:44:35.821Z,18.20
2023-05-15T08:45:35.914Z,18.10
2023-05-15T08:46:35.823Z,18.15
2023-05-15T08:47:35.923Z,18.15
2023-05-15T08:48:35.877Z,18.21
2023-05-15T08:49:35.763Z,18.14
2023-05-15T08:50:35.754Z,18.05
2023-05-15T08:51:36.538Z,18.03
2023-05-15T08:52:35.818Z,18.03
2023-05-15T08:53:35.779Z,18.14
2023-05-15T08:54:35.774Z,18.14
2023-05-15T08:55:35.697Z,18.18
2023-05-15T08:56:35.785Z,18.20
2023-05-15T08:57:35.697Z,18.26
2023-05-15T08:58:35.709Z,18.25
2023-05-15T08:59:35.784Z,18.23
2023-05-15T09:00:35.666Z,18.25
2023-05-15T09:01:35.724Z,18.23
2023-05-15T09:02:35.699Z,18.23
2023-05-15T09:03:35.707Z,18.26
2023-05-15T09:04:37.035Z,18.27
2023-05-15T09:05:36.743Z,18.23
2023-05-15T09:06:35.609Z,18.17
2023-05-15T09:07:35.677Z,18.14
2023-05-15T09:08:35.582Z,18.18
2023-05-15T09:09:36.574Z,18.21
2023-05-15T09:10:35.602Z,18.23
2023-05-15T09:11:35.618Z,18.27
2023-05-15T09:12:35.530Z,18.29
2023-05-15T09:13:35.628Z,18.29
2023-05-15T09:14:35.588Z,18.32
2023-05-15T09:15:35.590Z,18.33
2023-05-15T09:16:35.659Z,18.29
2023-05-15T09:17:35.620Z,18.26
2023-05-15T09:18:35.557Z,18.25
2023-05-15T09:19:35.445Z,18.29
2023-05-15T09:20:35.451Z,18.30
2023-05-15T09:21:35.482Z,18.30
2023-05-15T09:22:35.460Z,18.27
2023-05-15T09:23:35.377Z,18.30
2023-05-15T09:24:35.419Z,18.30
2023-05-15T09:25:35.376Z,18.33
2023-05-15T09:26:35.406Z,18.35
2023-05-15T09:27:35.374Z,18.33
2023-05-15T09:28:35.379Z,18.35
2023-05-15T09:29:35.304Z,18.33
2023-05-15T09:30:35.297Z,18.36
2023-05-15T09:31:35.360Z,18.35
2023-05-15T09:32:35.371Z,18.42
2023-05-15T09:33:35.304Z,18.47
2023-05-15T09:34:35.266Z,18.50
2023-05-15T09:35:35.246Z,18.55
2023-05-15T09:36:35.286Z,18.57
2023-05-15T09:37:35.285Z,18.55
2023-05-15T09:38:35.258Z,18.57
2023-05-15T09:39:36.513Z,18.60
2023-05-15T09:40:35.237Z,18.66
2023-05-15T09:41:35.186Z,18.67
2023-05-15T09:42:35.259Z,18.62
2023-05-15T09:43:35.206Z,18.58
2023-05-15T09:44:35.211Z,18.55
2023-05-15T09:45:35.271Z,18.55
2023-05-15T09:46:35.285Z,18.62
2023-05-15T09:47:35.321Z,18.69
2023-05-15T09:48:35.240Z,18.76
2023-05-15T09:49:35.151Z,18.76
2023-05-15T09:50:35.135Z,18.70
2023-05-15T09:51:35.114Z,18.62
2023-05-15T09:52:35.181Z,18.63
2023-05-15T09:53:35.068Z,18.62
2023-05-15T09:54:35.071Z,18.65
2023-05-15T09:55:35.117Z,18.60
2023-05-15T09:56:35.066Z,18.66
2023-05-15T09:57:35.088Z,18.69
2023-05-15T09:58:35.014Z,18.63
2023-05-15T09:59:35.059Z,18.62
2023-05-15T10:00:35.010Z,18.60
2023-05-15T10:01:35.024Z,18.62
2023-05-15T10:02:35.131Z,18.57
2023-05-15T10:03:35.032Z,18.60
2023-05-15T10:04:34.934Z,18.58
2023-05-15T10:05:43.032Z,18.60
2023-05-15T10:06:36.004Z,18.60
2023-05-15T10:07:34.969Z,18.63
2023-05-15T10:08:34.948Z,18.58
2023-05-15T10:09:35.028Z,18.60
2023-05-15T10:10:34.925Z,18.65
2023-05-15T10:11:34.882Z,18.65
2023-05-15T10:12:34.883Z,18.63
2023-05-15T10:13:34.852Z,18.65
2023-05-15T10:14:34.891Z,18.65
2023-05-15T10:15:34.893Z,18.70
2023-05-15T10:16:34.911Z,18.73
2023-05-15T10:17:34.866Z,18.72
2023-05-15T10:18:34.961Z,18.72
2023-05-15T10:19:39.298Z,18.69
2023-05-15T10:20:35.955Z,18.67
2023-05-15T10:21:34.795Z,18.67
2023-05-15T10:22:34.757Z,18.72
2023-05-15T10:23:34.758Z,18.70
2023-05-15T10:24:34.761Z,18.65
2023-05-15T10:25:34.737Z,18.69
2023-05-15T10:26:34.717Z,18.60
2023-05-15T10:27:34.730Z,18.58
2023-05-15T10:28:34.818Z,18.58
2023-05-15T10:29:34.698Z,18.62
2023-05-15T10:30:34.703Z,18.58
2023-05-15T10:31:34.714Z,18.69
2023-05-15T10:32:34.680Z,18.52
2023-05-15T10:33:34.691Z,18.52
2023-05-15T10:34:34.673Z,18.55
2023-05-15T10:35:34.675Z,18.41
2023-05-15T10:36:34.651Z,18.36
2023-05-15T10:37:34.601Z,18.32
2023-05-15T10:38:34.635Z,18.17
2023-05-15T10:39:34.803Z,17.99
2023-05-15T10:40:34.574Z,18.07
2023-05-15T10:41:34.591Z,18.02
2023-05-15T10:42:34.604Z,18.05
2023-05-15T10:43:34.546Z,18.05
2023-05-15T10:44:34.551Z,18.14
2023-05-15T10:45:34.554Z,18.17
2023-05-15T10:46:34.528Z,18.20
2023-05-15T10:47:34.523Z,18.18
2023-05-15T10:48:34.534Z,18.21
2023-05-15T10:49:34.527Z,18.21
2023-05-15T10:50:34.579Z,18.23
2023-05-15T10:51:34.454Z,18.21
2023-05-15T10:52:34.529Z,18.20
2023-05-15T10:53:34.635Z,18.23
2023-05-15T10:54:34.469Z,18.30
2023-05-15T10:55:34.456Z,18.32
2023-05-15T10:56:34.459Z,18.39
2023-05-15T10:57:34.399Z,18.44
2023-05-15T10:58:34.441Z,18.51
2023-05-15T10:59:34.428Z,18.55
2023-05-15T11:00:34.406Z,18.58
2023-05-15T11:01:34.385Z,18.70
2023-05-15T11:02:34.389Z,18.65
2023-05-15T11:03:45.004Z,18.76
2023-05-15T11:04:35.453Z,18.92
2023-05-15T11:05:34.318Z,19.14
2023-05-15T11:06:34.329Z,19.31
2023-05-15T11:07:34.292Z,19.43
2023-05-15T11:08:34.297Z,19.48
2023-05-15T11:09:34.297Z,19.48
2023-05-15T11:10:34.299Z,19.37
2023-05-15T11:11:34.289Z,19.25
2023-05-15T11:12:34.264Z,19.19
2023-05-15T11:13:34.222Z,19.14
2023-05-15T11:14:34.201Z,19.11
2023-05-15T11:15:34.183Z,19.08
2023-05-15T11:16:34.199Z,19.10
2023-05-15T11:17:34.382Z,19.21
2023-05-15T11:18:34.194Z,19.37
2023-05-15T11:19:34.178Z,19.61
2023-05-15T11:20:35.157Z,19.77
2023-05-15T11:21:34.181Z,19.95
2023-05-15T11:22:34.164Z,20.08
2023-05-15T11:23:34.620Z,20.14
2023-05-15T11:24:34.505Z,20.24
2023-05-15T11:25:34.245Z,20.24
2023-05-15T11:26:34.105Z,20.29
2023-05-15T11:27:34.096Z,20.48
2023-05-15T11:28:34.046Z,20.47
2023-05-15T11:29:34.077Z,20.39
2023-05-15T11:30:34.309Z,20.50
2023-05-15T11:31:34.098Z,20.62
2023-05-15T11:32:34.062Z,20.84
2023-05-15T11:33:33.995Z,20.94
2023-05-15T11:34:34.043Z,21.14
2023-05-15T11:35:34.019Z,20.69
2023-05-15T11:36:35.692Z,20.16
2023-05-15T11:37:33.970Z,20.05
2023-05-15T11:38:33.967Z,20.14
2023-05-15T11:39:33.946Z,20.20
2023-05-15T11:40:33.969Z,20.17
2023-05-15T11:41:33.926Z,20.18
2023-05-15T11:42:33.953Z,20.20
2023-05-15T11:43:33.901Z,20.26
2023-05-15T11:44:33.877Z,20.33
2023-05-15T11:45:33.902Z,20.43
2023-05-15T11:46:33.923Z,20.50
2023-05-15T11:47:33.940Z,20.54
2023-05-15T11:48:33.862Z,20.33
2023-05-15T11:49:33.827Z,20.14
2023-05-15T11:50:33.848Z,20.35
2023-05-15T11:51:33.823Z,20.31
2023-05-15T11:52:33.827Z,20.21
2023-05-15T11:53:33.946Z,20.20
2023-05-15T11:54:33.812Z,20.33
2023-05-15T11:55:33.774Z,20.61
2023-05-15T11:56:33.751Z,20.94
2023-05-15T11:57:33.811Z,20.91
2023-05-15T11:58:33.761Z,21.12
2023-05-15T11:59:33.716Z,21.28
2023-05-15T12:00:33.843Z,21.38
2023-05-15T12:01:33.726Z,21.44
2023-05-15T12:02:33.816Z,21.61
2023-05-15T12:03:33.891Z,21.46
2023-05-15T12:04:33.729Z,21.21
2023-05-15T12:05:33.687Z,21.04
2023-05-15T12:06:33.682Z,20.87
2023-05-15T12:07:33.700Z,20.76
2023-05-15T12:08:33.682Z,20.85
2023-05-15T12:09:33.619Z,21.04
2023-05-15T12:10:33.648Z,20.89
2023-05-15T12:11:33.664Z,20.85
2023-05-15T12:12:33.629Z,20.94
2023-05-15T12:13:33.564Z,21.24
2023-05-15T12:14:33.565Z,21.44
2023-05-15T12:15:33.579Z,21.49
2023-05-15T12:16:33.647Z,21.28
2023-05-15T12:17:33.614Z,20.95
2023-05-15T12:18:33.571Z,21.12
2023-05-15T12:19:33.550Z,21.34
2023-05-15T12:20:33.558Z,21.17
2023-05-15T12:21:35.268Z,20.82
2023-05-15T12:22:33.524Z,20.91
2023-05-15T12:23:33.513Z,21.01
2023-05-15T12:24:33.473Z,21.09
2023-05-15T12:25:33.482Z,21.07
2023-05-15T12:26:33.506Z,21.13
2023-05-15T12:27:33.449Z,21.47
2023-05-15T12:28:33.431Z,21.68
2023-05-15T12:29:33.467Z,21.91
2023-05-15T12:30:33.411Z,22.15
2023-05-15T12:31:33.477Z,22.31
2023-05-15T12:32:33.444Z,21.82
2023-05-15T12:33:33.418Z,21.94
2023-05-15T12:34:33.380Z,22.00
2023-05-15T12:35:33.369Z,22.09
2023-05-15T12:36:33.404Z,22.09
2023-05-15T12:37:33.383Z,21.91
2023-05-15T12:38:33.322Z,22.05
2023-05-15T12:39:33.325Z,22.15
2023-05-15T12:40:33.370Z,21.79
2023-05-15T12:41:33.312Z,21.80
2023-05-15T12:42:33.294Z,22.09
2023-05-15T12:43:33.286Z,22.15
2023-05-15T12:44:33.333Z,21.90
2023-05-15T12:45:33.257Z,21.77
2023-05-15T12:46:33.348Z,22.07
2023-05-15T12:47:33.274Z,22.17
2023-05-15T12:48:33.239Z,22.17
2023-05-15T12:49:33.210Z,22.39
2023-05-15T12:50:33.258Z,22.67
2023-05-15T12:51:33.219Z,22.57
2023-05-15T12:52:33.277Z,22.83
2023-05-15T12:53:33.168Z,23.12